createdAt,value
2022-09-25T00:01:13.294Z,3.70
2022-09-25T00:03:39.820Z,2.88
2022-09-25T00:06:07.705Z,2.75
2022-09-25T00:08:34.729Z,3.03
2022-09-25T00:11:05.127Z,3.13
2022-09-25T00:13:31.387Z,2.90
2022-09-25T00:15:58.792Z,3.83
2022-09-25T00:18:44.191Z,2.50
2022-09-25T00:21:12.674Z,2.95
2022-09-25T00:23:39.039Z,2.95
2022-09-25T00:26:06.327Z,2.60
2022-09-25T00:28:32.631Z,3.33
2022-09-25T00:30:59.378Z,3.10
2022-09-25T00:33:25.755Z,2.95
2022-09-25T00:35:52.015Z,3.00
2022-09-25T00:38:18.405Z,3.38
2022-09-25T00:40:44.793Z,3.33
2022-09-25T00:43:34.166Z,3.00
2022-09-25T00:46:01.617Z,2.97
2022-09-25T00:48:29.598Z,2.50
2022-09-25T00:50:57.301Z,2.65
2022-09-25T00:53:26.039Z,3.08
2022-09-25T00:55:52.358Z,3.50
2022-09-25T00:58:20.854Z,3.47
2022-09-25T01:00:47.370Z,3.25
2022-09-25T01:03:14.015Z,3.00
2022-09-25T01:05:41.812Z,2.78
2022-09-25T01:08:10.101Z,3.33
2022-09-25T01:10:36.480Z,2.65
2022-09-25T01:13:03.147Z,2.33
2022-09-25T01:15:43.904Z,2.88
2022-09-25T01:18:13.133Z,3.72
2022-09-25T01:20:58.134Z,3.50
2022-09-25T01:23:24.355Z,3.53
2022-09-25T01:25:56.362Z,3.70
2022-09-25T01:28:31.933Z,3.78
2022-09-25T01:31:01.663Z,3.10
2022-09-25T01:33:34.159Z,3.47
2022-09-25T01:36:03.384Z,3.03
2022-09-25T01:38:31.167Z,3.65
2022-09-25T01:41:04.958Z,4.32
2022-09-25T01:43:36.744Z,4.15
2022-09-25T01:46:13.240Z,4.53
2022-09-25T01:48:40.876Z,4.18
2022-09-25T01:51:21.787Z,3.78
2022-09-25T01:53:50.752Z,4.43
2022-09-25T01:56:20.260Z,3.88
2022-09-25T01:58:49.532Z,3.70
2022-09-25T02:01:19.132Z,4.70
2022-09-25T02:03:51.302Z,4.38
2022-09-25T02:06:20.763Z,5.03
2022-09-25T02:08:49.508Z,4.32
2022-09-25T02:11:15.777Z,4.30
2022-09-25T02:13:53.415Z,4.20
2022-09-25T02:16:22.632Z,4.88
2022-09-25T02:19:08.320Z,4.63
2022-09-25T02:21:54.191Z,4.95
2022-09-25T02:24:26.415Z,4.30
2022-09-25T02:26:53.031Z,4.50
2022-09-25T02:29:19.765Z,4.75
2022-09-25T02:31:53.497Z,4.38
2022-09-25T02:34:20.333Z,4.63
2022-09-25T02:36:46.902Z,4.45
2022-09-25T02:39:14.864Z,4.40
2022-09-25T02:41:56.133Z,4.95
2022-09-25T02:44:35.142Z,4.70
2022-09-25T02:47:14.171Z,4.32
2022-09-25T02:49:47.699Z,4.50
2022-09-25T02:52:18.045Z,4.28
2022-09-25T02:54:54.599Z,3.63
2022-09-25T02:57:28.678Z,3.92
2022-09-25T02:59:59.222Z,4.03
2022-09-25T03:02:27.642Z,4.22
2022-09-25T03:04:54.363Z,4.15
2022-09-25T03:07:20.927Z,4.75
2022-09-25T03:09:48.746Z,4.95
2022-09-25T03:12:15.602Z,4.63
2022-09-25T03:14:41.876Z,4.45
2022-09-25T03:17:09.499Z,4.93
2022-09-25T03:19:35.847Z,4.70
2022-09-25T03:22:02.456Z,4.80
2022-09-25T03:24:28.835Z,4.70
2022-09-25T03:26:55.425Z,4.95
2022-09-25T03:29:21.758Z,5.13
2022-09-25T03:31:48.488Z,5.60
2022-09-25T03:34:16.556Z,5.85
2022-09-25T03:36:44.291Z,4.97
2022-09-25T03:39:15.010Z,5.22
2022-09-25T03:41:41.556Z,5.13
2022-09-25T03:44:07.832Z,5.53
2022-09-25T03:46:35.524Z,5.53
2022-09-25T03:49:02.237Z,4.90
2022-09-25T03:51:29.506Z,5.35
2022-09-25T03:53:55.760Z,5.38
2022-09-25T03:56:23.907Z,4.95
2022-09-25T03:58:51.175Z,5.15
2022-09-25T04:01:19.422Z,5.10
2022-09-25T04:03:47.241Z,6.18
2022-09-25T04:06:15.077Z,5.38
2022-09-25T04:08:41.424Z,4.63
2022-09-25T04:11:07.748Z,4.53
2022-09-25T04:13:36.471Z,5.03
2022-09-25T04:16:04.103Z,5.18
2022-09-25T04:18:31.517Z,4.88
2022-09-25T04:21:01.424Z,4.93
2022-09-25T04:23:27.986Z,4.80
2022-09-25T04:25:54.270Z,5.43
2022-09-25T04:28:23.179Z,5.63
2022-09-25T04:30:49.804Z,4.55
2022-09-25T04:33:34.918Z,5.13
2022-09-25T04:36:01.289Z,5.40
2022-09-25T04:38:27.964Z,4.07
2022-09-25T04:40:54.279Z,3.70
2022-09-25T04:43:20.554Z,5.18
2022-09-25T04:45:48.028Z,4.63
2022-09-25T04:48:14.329Z,5.45
2022-09-25T04:50:46.960Z,5.53
2022-09-25T04:53:13.198Z,5.22
2022-09-25T04:55:39.548Z,4.72
2022-09-25T04:58:05.797Z,5.35
2022-09-25T05:00:32.329Z,5.00
2022-09-25T05:02:58.929Z,5.57
2022-09-25T05:05:28.131Z,5.20
2022-09-25T05:07:55.562Z,4.78
2022-09-25T05:10:22.411Z,4.72
2022-09-25T05:12:48.751Z,6.47
2022-09-25T05:15:15.282Z,5.85
2022-09-25T05:17:41.618Z,6.13
2022-09-25T05:20:08.080Z,6.45
2022-09-25T05:22:34.419Z,5.90
2022-09-25T05:25:00.722Z,6.47
2022-09-25T05:27:26.965Z,6.53
2022-09-25T05:29:53.836Z,5.30
2022-09-25T05:32:20.243Z,5.38
2022-09-25T05:34:46.497Z,6.22
2022-09-25T05:37:12.811Z,5.70
2022-09-25T05:39:39.062Z,5.53
2022-09-25T05:42:05.866Z,6.03
2022-09-25T05:44:32.887Z,5.82
2022-09-25T05:46:59.146Z,5.97
2022-09-25T05:49:25.392Z,5.18
2022-09-25T05:51:51.650Z,5.55
2022-09-25T05:54:17.915Z,5.32
2022-09-25T05:56:44.193Z,5.18
2022-09-25T05:59:10.540Z,7.43
2022-09-25T06:01:36.900Z,5.55
2022-09-25T06:04:03.232Z,5.22
2022-09-25T06:06:31.062Z,5.55
2022-09-25T06:08:57.315Z,6.80
2022-09-25T06:11:23.583Z,5.55
2022-09-25T06:13:54.170Z,5.47
2022-09-25T06:16:20.971Z,5.53
2022-09-25T06:18:47.629Z,6.07
2022-09-25T06:21:13.952Z,5.95
2022-09-25T06:23:41.502Z,6.32
2022-09-25T06:26:09.295Z,5.47
2022-09-25T06:28:35.583Z,6.20
2022-09-25T06:31:02.533Z,6.20
2022-09-25T06:33:29.128Z,6.50
2022-09-25T06:35:55.495Z,6.43
2022-09-25T06:38:21.821Z,6.57
2022-09-25T06:40:48.220Z,5.78
2022-09-25T06:43:15.470Z,7.65
2022-09-25T06:45:42.470Z,6.65
2022-09-25T06:48:13.564Z,6.03
2022-09-25T06:50:41.435Z,5.63
2022-09-25T06:53:08.441Z,7.50
2022-09-25T06:55:35.080Z,7.30
2022-09-25T06:58:01.865Z,6.63
2022-09-25T07:00:28.247Z,8.18
2022-09-25T07:03:12.916Z,9.05
2022-09-25T07:05:39.155Z,6.97
2022-09-25T07:08:05.403Z,8.27
2022-09-25T07:10:31.668Z,7.43
2022-09-25T07:12:58.650Z,7.47
2022-09-25T07:15:24.961Z,7.78
2022-09-25T07:17:51.370Z,8.60
2022-09-25T07:20:17.719Z,8.73
2022-09-25T07:22:43.979Z,7.80
2022-09-25T07:25:10.743Z,8.75
2022-09-25T07:27:37.047Z,8.85
2022-09-25T07:30:03.711Z,6.95
2022-09-25T07:32:31.602Z,8.02
2022-09-25T07:34:58.643Z,7.05
2022-09-25T07:37:24.974Z,6.78
2022-09-25T07:39:51.239Z,6.20
2022-09-25T07:42:17.893Z,5.97
2022-09-25T07:44:48.383Z,5.72
2022-09-25T07:47:15.363Z,6.00
2022-09-25T07:49:41.660Z,6.00
2022-09-25T07:52:07.912Z,6.00
2022-09-25T07:54:37.692Z,5.55
2022-09-25T07:57:03.968Z,5.35
2022-09-25T07:59:30.235Z,4.55
2022-09-25T08:01:58.179Z,4.95
2022-09-25T08:04:24.572Z,4.50
2022-09-25T08:06:50.858Z,4.68
2022-09-25T08:09:17.100Z,4.13
2022-09-25T08:11:43.964Z,4.15
2022-09-25T08:14:11.202Z,3.80
2022-09-25T08:16:37.442Z,3.75
2022-09-25T08:19:04.376Z,3.90
2022-09-25T08:21:30.636Z,3.90
2022-09-25T08:23:56.966Z,3.53
2022-09-25T08:26:23.466Z,4.18
2022-09-25T08:28:50.680Z,3.78
2022-09-25T08:31:17.315Z,3.17
2022-09-25T08:33:44.602Z,3.63
2022-09-25T08:36:10.849Z,4.10
2022-09-25T08:38:37.104Z,3.65
2022-09-25T08:41:22.594Z,4.03
2022-09-25T08:44:07.428Z,4.03
2022-09-25T08:46:55.208Z,3.92
2022-09-25T08:49:26.243Z,4.15
2022-09-25T08:51:54.558Z,3.20
2022-09-25T08:54:22.699Z,3.63
2022-09-25T08:56:53.650Z,3.53
2022-09-25T08:59:26.083Z,3.72
2022-09-25T09:02:21.573Z,3.28
2022-09-25T09:04:56.869Z,3.03
2022-09-25T09:07:28.052Z,3.45
2022-09-25T09:09:54.697Z,3.88
2022-09-25T09:12:23.531Z,3.63
2022-09-25T09:14:52.219Z,3.10
2022-09-25T09:17:28.227Z,3.40
2022-09-25T09:19:59.186Z,2.95
2022-09-25T09:22:29.200Z,3.05
2022-09-25T09:25:02.621Z,3.47
2022-09-25T09:27:49.133Z,3.30
2022-09-25T09:30:27.330Z,3.97
2022-09-25T09:33:08.569Z,2.70
2022-09-25T09:35:53.563Z,2.33
2022-09-25T09:38:32.795Z,2.92
2022-09-25T09:41:18.679Z,2.40
2022-09-25T09:43:47.860Z,2.00
2022-09-25T09:46:19.215Z,2.17
2022-09-25T09:48:48.248Z,2.58
2022-09-25T09:51:21.372Z,2.22
2022-09-25T09:54:04.694Z,3.22
2022-09-25T09:56:31.840Z,3.15
2022-09-25T09:59:17.874Z,3.15
2022-09-25T10:01:45.400Z,3.20
2022-09-25T10:04:15.679Z,3.22
2022-09-25T10:06:43.830Z,2.63
2022-09-25T10:09:13.980Z,3.33
2022-09-25T10:11:40.452Z,2.70
2022-09-25T10:14:11.257Z,2.55
2022-09-25T10:16:37.516Z,2.95
2022-09-25T10:19:19.858Z,2.40
2022-09-25T10:21:52.267Z,3.70
2022-09-25T10:24:39.428Z,2.75
2022-09-25T10:27:20.053Z,3.10
2022-09-25T10:29:46.357Z,3.00
2022-09-25T10:32:13.041Z,2.10
2022-09-25T10:34:40.582Z,2.22
2022-09-25T10:37:21.114Z,2.47
2022-09-25T10:40:13.433Z,2.25
2022-09-25T10:42:41.139Z,2.72
2022-09-25T10:45:22.719Z,3.30
2022-09-25T10:48:08.947Z,2.75
2022-09-25T10:50:36.861Z,2.95
2022-09-25T10:53:05.020Z,2.60
2022-09-25T10:55:32.770Z,1.90
2022-09-25T10:58:06.684Z,2.33
2022-09-25T11:00:42.787Z,2.25
2022-09-25T11:03:19.850Z,2.65
2022-09-25T11:05:49.731Z,2.03
2022-09-25T11:08:16.385Z,2.33
2022-09-25T11:10:49.966Z,2.25
2022-09-25T11:13:26.143Z,3.15
2022-09-25T11:15:53.837Z,2.17
2022-09-25T11:18:35.183Z,2.20
2022-09-25T11:21:02.963Z,2.38
2022-09-25T11:23:36.053Z,2.00
2022-09-25T11:26:06.940Z,2.15
2022-09-25T11:28:34.799Z,2.20
2022-09-25T11:31:15.919Z,1.80
2022-09-25T11:33:48.880Z,2.10
2022-09-25T11:36:17.270Z,2.10
2022-09-25T11:39:02.224Z,1.98
2022-09-25T11:41:31.538Z,2.30
2022-09-25T11:44:16.461Z,2.75
2022-09-25T11:47:01.728Z,2.88
2022-09-25T11:49:31.938Z,3.20
2022-09-25T11:52:07.176Z,2.70
2022-09-25T11:57:06.502Z,2.95
2022-09-25T11:59:51.641Z,2.92
2022-09-25T12:02:25.687Z,3.33
2022-09-25T12:05:07.063Z,2.60
2022-09-25T12:07:48.938Z,2.05
2022-09-25T12:10:35.186Z,2.17
2022-09-25T12:13:01.491Z,2.05
2022-09-25T12:15:31.563Z,2.50
2022-09-25T12:18:00.803Z,2.03
2022-09-25T12:20:30.436Z,2.72
2022-09-25T12:23:02.512Z,2.92
2022-09-25T12:25:49.401Z,2.13
2022-09-25T12:28:33.219Z,2.33
2022-09-25T12:31:10.550Z,2.33
2022-09-25T12:33:55.447Z,2.30
2022-09-25T12:36:35.450Z,2.35
2022-09-25T12:39:20.053Z,2.55
2022-09-25T12:41:46.287Z,1.83
2022-09-25T12:44:12.606Z,2.35
2022-09-25T12:46:44.206Z,1.95
2022-09-25T12:49:13.456Z,2.10
2022-09-25T12:51:45.521Z,2.22
2022-09-25T12:54:17.580Z,2.22
2022-09-25T12:56:43.851Z,2.70
2022-09-25T12:59:13.891Z,4.30
2022-09-25T13:01:47.604Z,2.53
2022-09-25T13:04:27.455Z,2.42
2022-09-25T13:07:03.536Z,2.75
2022-09-25T13:09:41.672Z,2.20
2022-09-25T13:12:10.175Z,2.40
2022-09-25T13:14:41.816Z,2.30
2022-09-25T13:17:12.016Z,2.92
2022-09-25T13:19:38.271Z,1.83
2022-09-25T13:22:10.151Z,2.72
2022-09-25T13:24:39.219Z,2.72
2022-09-25T13:27:06.806Z,2.38
2022-09-25T13:29:38.954Z,1.90
2022-09-25T13:32:07.644Z,2.30
2022-09-25T13:34:36.660Z,2.22
2022-09-25T13:37:05.439Z,2.28
2022-09-25T13:39:52.341Z,1.80
2022-09-25T13:42:24.691Z,2.03
2022-09-25T13:44:56.619Z,1.70
2022-09-25T13:47:25.787Z,2.53
2022-09-25T13:50:04.575Z,2.42
2022-09-25T13:52:30.879Z,2.65
2022-09-25T13:55:21.997Z,2.53
2022-09-25T13:57:54.919Z,2.78
2022-09-25T14:00:21.681Z,2.33
2022-09-25T14:02:48.198Z,1.90
2022-09-25T14:05:21.795Z,2.28
2022-09-25T14:07:50.556Z,2.03
2022-09-25T14:10:17.490Z,2.38
2022-09-25T14:12:45.328Z,1.92
2022-09-25T14:15:15.515Z,2.22
2022-09-25T14:17:42.922Z,2.50
2022-09-25T14:20:23.048Z,2.92
2022-09-25T14:22:53.692Z,2.40
2022-09-25T14:25:28.171Z,2.45
2022-09-25T14:27:55.313Z,2.85
2022-09-25T14:30:21.786Z,2.25
2022-09-25T14:33:03.416Z,2.00
2022-09-25T14:35:35.271Z,2.67
2022-09-25T14:38:20.297Z,2.35
2022-09-25T14:40:55.656Z,2.15
2022-09-25T14:46:05.356Z,4.20
2022-09-25T14:48:37.375Z,3.22
2022-09-25T14:51:06.256Z,2.30
2022-09-25T14:53:40.062Z,5.63
2022-09-25T14:56:11.960Z,3.42
2022-09-25T14:58:41.354Z,2.58
2022-09-25T15:01:23.419Z,3.40
2022-09-25T15:03:50.198Z,2.88
2022-09-25T15:06:27.179Z,3.20
2022-09-25T15:08:53.466Z,2.58
2022-09-25T15:11:20.188Z,2.78
2022-09-25T15:13:46.734Z,2.40
2022-09-25T15:16:33.942Z,2.80
2022-09-25T15:19:01.604Z,2.03
2022-09-25T15:21:34.281Z,2.45
2022-09-25T15:24:05.755Z,2.00
2022-09-25T15:26:32.552Z,2.92
2022-09-25T15:28:58.861Z,2.85
2022-09-25T15:31:25.458Z,5.15
2022-09-25T15:34:02.491Z,4.18
2022-09-25T15:36:28.771Z,2.80
2022-09-25T15:39:00.140Z,2.55
2022-09-25T15:41:27.050Z,2.55
2022-09-25T15:44:07.583Z,2.42
2022-09-25T15:46:38.347Z,2.30
2022-09-25T15:49:05.195Z,2.40
2022-09-25T15:51:33.440Z,2.22
2022-09-25T15:53:59.696Z,3.00
2022-09-25T15:56:30.355Z,2.47
2022-09-25T15:58:58.431Z,2.30
2022-09-25T16:01:46.047Z,2.58
2022-09-25T16:04:41.037Z,2.33
2022-09-25T16:07:20.387Z,2.72
2022-09-25T16:09:47.168Z,2.50
2022-09-25T16:12:20.137Z,4.20
2022-09-25T16:14:47.091Z,2.80
2022-09-25T16:17:22.095Z,2.72
2022-09-25T16:20:23.796Z,2.38
2022-09-25T16:22:57.503Z,2.53
2022-09-25T16:25:32.123Z,2.55
2022-09-25T16:28:05.795Z,3.10
2022-09-25T16:30:32.240Z,2.83
2022-09-25T16:33:03.505Z,2.10
2022-09-25T16:35:56.875Z,2.72
2022-09-25T16:38:33.275Z,3.03
2022-09-25T16:41:04.403Z,2.20
2022-09-25T16:43:30.734Z,2.53
2022-09-25T16:45:58.632Z,2.40
2022-09-25T16:48:51.385Z,2.60
2022-09-25T16:51:21.487Z,2.30
2022-09-25T16:53:49.149Z,3.05
2022-09-25T16:56:25.680Z,3.65
2022-09-25T16:58:52.595Z,2.72
2022-09-25T17:01:19.342Z,3.60
2022-09-25T17:03:52.394Z,3.58
2022-09-25T17:06:22.670Z,4.22
2022-09-25T17:08:49.216Z,3.90
2022-09-25T17:11:16.471Z,3.60
2022-09-25T17:13:42.719Z,4.25
2022-09-25T17:16:09.242Z,3.13
2022-09-25T17:18:35.594Z,3.35
2022-09-25T17:21:03.806Z,4.47
2022-09-25T17:23:30.287Z,3.80
2022-09-25T17:26:04.982Z,4.60
2022-09-25T17:28:32.911Z,4.53
2022-09-25T17:31:00.862Z,4.50
2022-09-25T17:33:32.380Z,4.07
2022-09-25T17:36:04.946Z,4.60
2022-09-25T17:38:34.349Z,4.30
2022-09-25T17:41:05.456Z,4.72
2022-09-25T17:43:32.233Z,4.78
2022-09-25T17:45:59.246Z,4.55
2022-09-25T17:48:27.189Z,7.00
2022-09-25T17:50:56.575Z,6.70
2022-09-25T17:53:23.820Z,6.70
2022-09-25T17:55:53.659Z,5.90
2022-09-25T17:58:21.922Z,6.60
2022-09-25T18:00:48.281Z,6.00
2022-09-25T18:03:15.481Z,5.40
2022-09-25T18:05:42.737Z,5.95
2022-09-25T18:08:09.909Z,5.65
2022-09-25T18:10:37.192Z,5.68
2022-09-25T18:13:04.092Z,6.32
2022-09-25T18:15:30.779Z,5.68
2022-09-25T18:17:57.186Z,6.32
2022-09-25T18:20:42.595Z,6.07
2022-09-25T18:23:08.927Z,6.80
2022-09-25T18:25:37.355Z,5.93
2022-09-25T18:28:03.631Z,5.95
2022-09-25T18:30:29.936Z,7.15
2022-09-25T18:32:56.193Z,5.63
2022-09-25T18:35:22.574Z,6.22
2022-09-25T18:37:49.012Z,6.97
2022-09-25T18:40:16.754Z,6.75
2022-09-25T18:42:43.271Z,5.47
2022-09-25T18:45:10.935Z,5.88
2022-09-25T18:47:37.378Z,7.28
2022-09-25T18:50:03.899Z,5.05
2022-09-25T18:52:31.630Z,5.10
2022-09-25T18:55:00.175Z,4.75
2022-09-25T18:57:27.054Z,4.57
2022-09-25T18:59:53.790Z,4.78
2022-09-25T19:02:21.813Z,4.68
2022-09-25T19:04:48.480Z,4.90
2022-09-25T19:07:15.144Z,5.18
2022-09-25T19:09:41.611Z,4.00
2022-09-25T19:12:07.872Z,3.85
2022-09-25T19:14:35.092Z,5.45
2022-09-25T19:17:02.196Z,4.30
2022-09-25T19:19:30.200Z,4.20
2022-09-25T19:21:56.475Z,4.38
2022-09-25T19:24:22.999Z,5.47
2022-09-25T19:26:49.251Z,3.78
2022-09-25T19:29:15.589Z,3.92
2022-09-25T19:31:41.999Z,4.28
2022-09-25T19:34:08.764Z,3.83
2022-09-25T19:36:35.030Z,5.13
2022-09-25T19:39:01.639Z,4.30
2022-09-25T19:41:29.123Z,5.13
2022-09-25T19:43:57.346Z,4.93
2022-09-25T19:46:24.072Z,4.13
2022-09-25T19:48:50.363Z,4.03
2022-09-25T19:51:17.533Z,3.08
2022-09-25T19:53:44.455Z,3.63
2022-09-25T19:56:11.142Z,3.53
2022-09-25T19:58:40.641Z,2.97
2022-09-25T20:01:17.888Z,4.18
2022-09-25T20:03:44.205Z,3.17
2022-09-25T20:06:10.962Z,3.70
2022-09-25T20:08:37.696Z,3.60
2022-09-25T20:11:20.762Z,3.70
2022-09-25T20:13:47.851Z,4.72
2022-09-25T20:16:16.349Z,3.95
2022-09-25T20:18:43.881Z,3.85
2022-09-25T20:21:10.343Z,3.83
2022-09-25T20:23:36.599Z,3.70
2022-09-25T20:26:08.675Z,3.78
2022-09-25T20:28:35.891Z,4.38
2022-09-25T20:31:09.369Z,4.22
2022-09-25T20:33:35.977Z,4.38
2022-09-25T20:36:03.102Z,3.90
2022-09-25T20:38:29.363Z,4.20
2022-09-25T20:40:58.592Z,3.97
2022-09-25T20:43:24.911Z,4.28
2022-09-25T20:46:03.941Z,4.05
2022-09-25T20:48:38.642Z,3.75
2022-09-25T20:51:08.966Z,4.50
2022-09-25T20:53:35.971Z,4.57
2022-09-25T20:56:12.673Z,4.20
2022-09-25T20:58:39.919Z,4.80
2022-09-25T21:01:08.256Z,3.78
2022-09-25T21:03:35.905Z,4.85
2022-09-25T21:06:02.913Z,4.43
2022-09-25T21:08:29.832Z,3.67
2022-09-25T21:10:56.605Z,3.97
2022-09-25T21:13:22.963Z,4.85
2022-09-25T21:15:49.224Z,4.00
2022-09-25T21:18:15.458Z,3.92
2022-09-25T21:20:41.695Z,3.97
2022-09-25T21:23:07.944Z,4.57
2022-09-25T21:25:34.204Z,4.78
2022-09-25T21:28:00.725Z,4.70
2022-09-25T21:30:27.015Z,4.82
2022-09-25T21:32:54.171Z,4.63
2022-09-25T21:35:20.606Z,4.05
2022-09-25T21:37:47.227Z,4.80
2022-09-25T21:40:13.489Z,4.95
2022-09-25T21:42:39.764Z,4.78
2022-09-25T21:45:07.675Z,4.03
2022-09-25T21:47:33.935Z,4.55
2022-09-25T21:50:00.183Z,4.55
2022-09-25T21:52:26.508Z,4.68
2022-09-25T21:54:54.433Z,4.80
2022-09-25T21:57:21.855Z,4.55
2022-09-25T21:59:48.356Z,4.65
2022-09-25T22:02:14.973Z,4.80
2022-09-25T22:04:41.246Z,4.70
2022-09-25T22:07:07.584Z,4.43
2022-09-25T22:09:33.986Z,5.40
2022-09-25T22:12:00.535Z,4.70
2022-09-25T22:14:26.823Z,4.45
2022-09-25T22:16:53.302Z,5.82
2022-09-25T22:19:22.987Z,4.57
2022-09-25T22:21:50.068Z,6.15
2022-09-25T22:24:16.821Z,4.97
2022-09-25T22:26:44.317Z,4.07
2022-09-25T22:29:11.393Z,4.05
2022-09-25T22:31:38.508Z,4.65
2022-09-25T22:34:06.038Z,4.65
2022-09-25T22:36:33.513Z,4.80
2022-09-25T22:38:59.767Z,4.20
2022-09-25T22:41:26.073Z,4.25
2022-09-25T22:43:53.023Z,4.43
2022-09-25T22:46:20.186Z,3.88
2022-09-25T22:48:46.565Z,4.47
2022-09-25T22:51:15.426Z,4.65
2022-09-25T22:53:42.087Z,4.70
2022-09-25T22:56:08.350Z,5.18
2022-09-25T22:58:34.618Z,4.65
2022-09-25T23:01:02.384Z,4.32
2022-09-25T23:03:28.750Z,4.55
2022-09-25T23:05:55.006Z,5.30
2022-09-25T23:08:21.244Z,4.65
2022-09-25T23:11:06.173Z,4.68
2022-09-25T23:13:33.712Z,4.82
2022-09-25T23:16:07.216Z,4.32
2022-09-25T23:18:34.738Z,4.57
2022-09-25T23:21:00.978Z,4.63
2022-09-25T23:23:27.420Z,4.13
2022-09-25T23:25:54.547Z,4.57
2022-09-25T23:28:21.810Z,5.80
2022-09-25T23:30:48.091Z,5.30
2022-09-25T23:33:14.366Z,4.57
2022-09-25T23:35:40.628Z,4.53
2022-09-25T23:38:07.242Z,5.15
2022-09-25T23:40:33.569Z,4.57
2022-09-25T23:43:01.758Z,5.00
2022-09-25T23:45:28.230Z,4.82
2022-09-25T23:47:54.536Z,4.72
2022-09-25T23:50:21.046Z,4.32
2022-09-25T23:52:47.333Z,3.80
2022-09-25T23:55:14.193Z,4.80
2022-09-25T23:57:40.433Z,4.90
